createdAt,value
2022-09-30T00:02:14.849Z,0.90
2022-09-30T00:07:18.571Z,0.90
2022-09-30T00:12:23.456Z,1.10
2022-09-30T00:17:28.256Z,1.00
2022-09-30T00:22:32.194Z,0.90
2022-09-30T00:27:37.083Z,0.70
2022-09-30T00:32:40.564Z,0.90
2022-09-30T00:37:44.083Z,0.73
2022-09-30T00:42:49.466Z,0.93
2022-09-30T00:47:55.616Z,0.70
2022-09-30T00:53:08.122Z,0.60
2022-09-30T00:58:18.748Z,0.77
2022-09-30T01:03:23.710Z,0.67
2022-09-30T01:08:29.043Z,0.80
2022-09-30T01:13:35.929Z,0.73
2022-09-30T01:18:54.650Z,0.83
2022-09-30T01:24:21.058Z,0.90
2022-09-30T01:30:02.823Z,0.67
2022-09-30T01:35:17.393Z,0.70
2022-09-30T01:40:25.840Z,0.73
2022-09-30T01:45:36.296Z,0.70
2022-09-30T01:50:50.188Z,0.70
2022-09-30T01:56:00.109Z,0.70
2022-09-30T02:01:09.459Z,0.60
2022-09-30T02:06:20.526Z,0.70
2022-09-30T02:11:26.974Z,0.90
2022-09-30T02:16:35.603Z,0.60
2022-09-30T02:21:43.387Z,0.77
2022-09-30T02:26:50.345Z,0.70
2022-09-30T02:31:57.538Z,0.80
2022-09-30T02:37:07.262Z,0.87
2022-09-30T02:42:15.051Z,0.70
2022-09-30T02:47:30.012Z,0.50
2022-09-30T02:52:45.437Z,0.70
2022-09-30T02:57:57.775Z,0.70
2022-09-30T03:03:07.142Z,0.83
2022-09-30T03:08:12.093Z,0.80
2022-09-30T03:13:30.174Z,0.73
2022-09-30T03:18:54.016Z,0.73
2022-09-30T03:24:31.827Z,1.07
2022-09-30T03:29:46.630Z,0.77
2022-09-30T03:35:04.387Z,0.63
2022-09-30T03:40:18.431Z,0.70
2022-09-30T03:45:29.876Z,0.50
2022-09-30T03:50:36.562Z,0.67
2022-09-30T03:55:51.557Z,0.80
2022-09-30T04:00:57.117Z,0.60
2022-09-30T04:06:00.727Z,0.50
2022-09-30T04:11:05.532Z,0.60
2022-09-30T04:16:10.954Z,0.60
2022-09-30T04:21:15.559Z,0.47
2022-09-30T04:26:20.533Z,0.60
2022-09-30T04:31:26.176Z,0.60
2022-09-30T04:36:29.774Z,0.53
2022-09-30T04:41:34.076Z,0.50
2022-09-30T04:46:38.950Z,0.60
2022-09-30T04:51:45.969Z,0.50
2022-09-30T04:56:49.525Z,0.60
2022-09-30T05:01:54.766Z,0.50
2022-09-30T05:06:58.653Z,0.60
2022-09-30T05:12:03.379Z,0.47
2022-09-30T05:17:08.678Z,0.70
2022-09-30T05:22:14.345Z,0.50
2022-09-30T05:27:18.001Z,0.77
2022-09-30T05:32:22.887Z,0.67
2022-09-30T05:37:26.487Z,0.60
2022-09-30T05:42:32.495Z,0.63
2022-09-30T05:47:37.338Z,0.70
2022-09-30T05:52:40.827Z,0.80
2022-09-30T05:57:47.962Z,0.83
2022-09-30T06:02:55.965Z,0.90
2022-09-30T06:07:59.614Z,1.07
2022-09-30T06:13:04.349Z,0.70
2022-09-30T06:18:09.937Z,0.63
2022-09-30T06:23:13.434Z,0.70
2022-09-30T06:28:16.958Z,0.80
2022-09-30T06:33:22.789Z,0.63
2022-09-30T06:38:28.707Z,0.90
2022-09-30T06:43:37.071Z,0.97
2022-09-30T06:49:10.250Z,1.20
2022-09-30T06:54:15.981Z,1.67
2022-09-30T06:59:19.485Z,1.50
2022-09-30T07:04:24.819Z,1.90
2022-09-30T07:09:28.401Z,1.50
2022-09-30T07:14:32.464Z,1.20
2022-09-30T07:19:37.339Z,1.20
2022-09-30T07:24:40.823Z,0.73
2022-09-30T07:30:07.777Z,0.97
2022-09-30T07:35:10.526Z,0.83
2022-09-30T07:40:15.069Z,0.80
2022-09-30T07:45:19.388Z,1.00
2022-09-30T07:50:24.421Z,0.90
2022-09-30T07:55:27.990Z,1.00
2022-09-30T08:00:42.200Z,1.20
2022-09-30T08:05:48.564Z,1.40
2022-09-30T08:10:52.056Z,1.07
2022-09-30T08:15:55.843Z,0.97
2022-09-30T08:21:04.289Z,0.80
2022-09-30T08:26:10.627Z,1.03
2022-09-30T08:31:16.439Z,0.80
2022-09-30T08:36:22.862Z,0.87
2022-09-30T08:41:55.470Z,0.77
2022-09-30T08:47:09.950Z,0.90
2022-09-30T08:52:30.776Z,1.07
2022-09-30T08:57:47.622Z,0.83
2022-09-30T09:02:54.866Z,0.90
2022-09-30T09:08:05.894Z,1.03
2022-09-30T09:13:19.301Z,0.80
2022-09-30T09:18:38.107Z,0.77
2022-09-30T09:23:43.801Z,0.90
2022-09-30T09:29:00.671Z,0.90
2022-09-30T09:34:10.958Z,1.00
2022-09-30T09:39:33.242Z,0.70
2022-09-30T09:44:43.933Z,0.50
2022-09-30T09:49:55.345Z,0.70
2022-09-30T09:55:02.654Z,0.60
2022-09-30T10:00:22.557Z,0.50
2022-09-30T10:05:27.140Z,0.60
2022-09-30T10:10:32.086Z,0.77
2022-09-30T10:15:37.640Z,0.80
2022-09-30T10:20:42.069Z,0.77
2022-09-30T10:25:57.011Z,1.07
2022-09-30T10:31:07.205Z,0.87
2022-09-30T10:36:17.621Z,0.80
2022-09-30T10:41:29.462Z,0.70
2022-09-30T10:46:36.683Z,0.50
2022-09-30T10:51:41.587Z,0.90
2022-09-30T10:56:47.286Z,0.70
2022-09-30T11:01:57.606Z,0.73
2022-09-30T11:07:15.756Z,0.57
2022-09-30T11:12:29.503Z,0.70
2022-09-30T11:17:41.119Z,0.60
2022-09-30T11:22:50.202Z,0.60
2022-09-30T11:28:16.110Z,0.60
2022-09-30T11:33:35.272Z,0.60
2022-09-30T11:39:04.299Z,0.43
2022-09-30T11:44:19.301Z,0.70
2022-09-30T11:49:38.460Z,0.60
2022-09-30T11:54:55.567Z,0.90
2022-09-30T12:00:04.504Z,0.67
2022-09-30T12:05:21.448Z,0.60
2022-09-30T12:10:28.632Z,0.40
2022-09-30T12:15:34.900Z,0.77
2022-09-30T12:20:43.184Z,0.50
2022-09-30T12:25:50.509Z,0.80
2022-09-30T12:31:08.366Z,0.73
2022-09-30T12:36:46.759Z,0.60
2022-09-30T12:42:03.655Z,0.60
2022-09-30T12:47:38.708Z,0.93
2022-09-30T12:52:42.440Z,0.67
2022-09-30T12:57:48.004Z,0.77
2022-09-30T13:02:57.809Z,0.60
2022-09-30T13:08:25.445Z,0.53
2022-09-30T13:13:32.305Z,0.50
2022-09-30T13:19:02.333Z,0.60
2022-09-30T13:24:08.747Z,0.40
2022-09-30T13:29:39.874Z,0.53
2022-09-30T13:35:26.041Z,0.70
2022-09-30T13:40:57.166Z,0.50
2022-09-30T13:45:57.020Z,0.40
2022-09-30T13:51:06.853Z,0.40
2022-09-30T13:56:17.152Z,0.60
2022-09-30T14:01:34.845Z,0.60
2022-09-30T14:06:57.003Z,0.30
2022-09-30T14:12:16.374Z,0.40
2022-09-30T14:17:34.589Z,0.30
2022-09-30T14:22:39.467Z,0.37
2022-09-30T14:27:53.508Z,0.40
2022-09-30T14:32:59.220Z,0.30
2022-09-30T14:38:07.793Z,0.30
2022-09-30T14:43:15.999Z,0.50
2022-09-30T14:48:24.750Z,0.30
2022-09-30T14:53:31.915Z,0.30
2022-09-30T14:58:42.373Z,0.20
2022-09-30T15:03:49.325Z,0.30
2022-09-30T15:09:02.182Z,0.30
2022-09-30T15:14:10.289Z,0.30
2022-09-30T15:19:18.890Z,0.60
2022-09-30T15:24:27.253Z,0.50
2022-09-30T15:29:31.128Z,0.30
2022-09-30T15:34:34.906Z,0.43
2022-09-30T15:40:00.633Z,0.30
2022-09-30T15:45:06.413Z,0.37
2022-09-30T15:50:37.960Z,0.30
2022-09-30T15:55:44.473Z,0.30
2022-09-30T16:00:48.036Z,0.30
2022-09-30T16:05:53.990Z,0.40
2022-09-30T16:11:05.168Z,0.23
2022-09-30T16:16:21.540Z,0.20
2022-09-30T16:21:45.868Z,0.30
2022-09-30T16:26:51.645Z,0.20
2022-09-30T16:31:57.505Z,0.30
2022-09-30T16:37:10.926Z,0.23
2022-09-30T16:42:17.105Z,0.20
2022-09-30T16:47:20.971Z,0.40
2022-09-30T16:52:26.071Z,0.30
2022-09-30T16:57:30.921Z,0.20
2022-09-30T17:02:34.495Z,0.30
2022-09-30T17:07:38.082Z,0.20
2022-09-30T17:12:42.913Z,0.20
2022-09-30T17:17:46.629Z,0.20
2022-09-30T17:22:50.590Z,0.20
2022-09-30T17:27:56.275Z,0.30
2022-09-30T17:33:00.111Z,0.40
2022-09-30T17:38:07.445Z,0.30
2022-09-30T17:43:12.381Z,0.30
2022-09-30T17:48:17.489Z,0.30
2022-09-30T17:53:21.119Z,0.20
2022-09-30T17:58:25.952Z,0.40
2022-09-30T18:03:29.365Z,0.40
2022-09-30T18:08:32.841Z,0.20
2022-09-30T18:13:37.820Z,0.30
2022-09-30T18:18:41.451Z,0.40
2022-09-30T18:23:44.929Z,0.33
2022-09-30T18:28:52.305Z,0.40
2022-09-30T18:33:56.151Z,0.27
2022-09-30T18:39:00.969Z,0.20
2022-09-30T18:44:05.888Z,0.33
2022-09-30T18:49:10.517Z,0.40
2022-09-30T18:54:15.787Z,0.37
2022-09-30T18:59:23.328Z,0.20
2022-09-30T19:04:27.823Z,0.30
2022-09-30T19:09:31.342Z,0.50
2022-09-30T19:14:37.374Z,0.50
2022-09-30T19:19:45.753Z,0.30
2022-09-30T19:24:49.266Z,0.53
2022-09-30T19:29:59.105Z,0.30
2022-09-30T19:35:06.433Z,0.30
2022-09-30T19:40:20.508Z,0.40
2022-09-30T19:45:51.001Z,0.50
2022-09-30T19:51:02.201Z,0.40
2022-09-30T19:56:07.741Z,0.70
2022-09-30T20:01:14.253Z,0.50
2022-09-30T20:06:18.674Z,0.50
2022-09-30T20:11:24.215Z,0.53
2022-09-30T20:16:29.146Z,0.60
2022-09-30T20:21:33.201Z,0.90
2022-09-30T20:26:36.984Z,0.60
2022-09-30T20:31:43.832Z,0.83
2022-09-30T20:36:47.639Z,0.80
2022-09-30T20:41:51.202Z,0.80
2022-09-30T20:46:56.044Z,0.63
2022-09-30T20:52:06.020Z,1.00
2022-09-30T20:57:09.551Z,1.20
2022-09-30T21:02:14.844Z,0.87
2022-09-30T21:07:18.775Z,0.80
2022-09-30T21:12:22.556Z,0.70
2022-09-30T21:17:28.027Z,0.70
2022-09-30T21:22:31.639Z,0.87
2022-09-30T21:27:35.358Z,1.00
2022-09-30T21:32:42.925Z,1.10
2022-09-30T21:37:49.602Z,1.10
2022-09-30T21:42:53.077Z,1.23
2022-09-30T21:48:03.883Z,0.60
2022-09-30T21:53:07.399Z,0.70
2022-09-30T21:58:10.921Z,0.80
2022-09-30T22:03:15.936Z,0.60
2022-09-30T22:08:19.494Z,0.80
2022-09-30T22:13:22.966Z,0.67
2022-09-30T22:18:28.222Z,0.60
2022-09-30T22:23:31.898Z,0.80
2022-09-30T22:28:35.655Z,0.83
2022-09-30T22:33:58.342Z,0.70
2022-09-30T22:39:01.916Z,0.73
2022-09-30T22:44:05.495Z,0.80
2022-09-30T22:49:11.665Z,0.90
2022-09-30T22:54:15.209Z,0.90
2022-09-30T22:59:19.199Z,0.97
2022-09-30T23:04:25.901Z,0.80
2022-09-30T23:09:31.064Z,0.70
2022-09-30T23:14:34.587Z,0.70
2022-09-30T23:19:39.483Z,0.70
2022-09-30T23:24:43.003Z,0.93
2022-09-30T23:29:46.511Z,0.83
2022-09-30T23:34:51.452Z,0.80
2022-09-30T23:39:54.968Z,0.70
2022-09-30T23:44:58.850Z,0.97
2022-09-30T23:50:03.785Z,1.00
2022-09-30T23:55:08.522Z,0.87
